createdAt,value
2018-05-23T00:00:35.507Z,43.71
2018-05-23T00:01:44.924Z,43.73
2018-05-23T00:02:54.898Z,43.73
2018-05-23T00:04:04.062Z,43.51
2018-05-23T00:05:13.744Z,43.51
2018-05-23T00:06:23.148Z,43.73
2018-05-23T00:07:32.063Z,43.73
2018-05-23T00:08:41.994Z,43.63
2018-05-23T00:09:51.168Z,43.73
2018-05-23T00:11:00.339Z,43.82
2018-05-23T00:12:09.536Z,43.73
2018-05-23T00:13:19.480Z,43.73
2018-05-23T00:14:28.386Z,43.61
2018-05-23T00:15:37.286Z,43.63
2018-05-23T00:16:46.282Z,43.71
2018-05-23T00:17:55.986Z,43.73
2018-05-23T00:19:05.431Z,43.8
2018-05-23T00:20:14.871Z,43.92
2018-05-23T00:21:24.563Z,43.63
2018-05-23T00:22:34.260Z,43.9
2018-05-23T00:23:43.691Z,43.99
2018-05-23T00:24:52.588Z,43.71
2018-05-23T00:26:01.773Z,44.02
2018-05-23T00:27:11.225Z,44.02
2018-05-23T00:28:20.924Z,44.31
2018-05-23T00:29:30.344Z,44.31
2018-05-23T00:30:39.517Z,44.19
2018-05-23T00:31:49.200Z,44.29
2018-05-23T00:32:58.358Z,44.19
2018-05-23T00:34:07.775Z,44.19
2018-05-23T00:35:17.196Z,44.12
2018-05-23T00:36:26.093Z,44.29
2018-05-23T00:37:35.777Z,44.19
2018-05-23T00:38:44.932Z,44.02
2018-05-23T00:39:54.884Z,44.12
2018-05-23T00:41:04.538Z,44.21
2018-05-23T00:42:14.217Z,44.12
2018-05-23T00:43:23.909Z,43.82
2018-05-23T00:44:32.820Z,44.12
2018-05-23T00:45:42.749Z,44.19
2018-05-23T00:46:52.865Z,43.92
2018-05-23T00:48:01.774Z,44.21
2018-05-23T00:49:11.195Z,43.92
2018-05-23T00:50:20.861Z,43.99
2018-05-23T00:51:30.708Z,43.99
2018-05-23T00:52:40.497Z,43.99
2018-05-23T00:53:50.185Z,43.92
2018-05-23T00:54:59.858Z,44.12
2018-05-23T00:56:09.118Z,43.92
2018-05-23T00:57:18.543Z,43.92
2018-05-23T00:58:28.229Z,44.02
2018-05-23T00:59:37.135Z,43.99
2018-05-23T01:00:46.279Z,43.99
2018-05-23T01:01:55.709Z,43.8
2018-05-23T01:03:04.907Z,43.8
2018-05-23T01:04:14.316Z,44.31
2018-05-23T01:05:23.471Z,44.38
2018-05-23T01:06:32.894Z,44.21
2018-05-23T01:07:42.599Z,44.29
2018-05-23T01:08:52.021Z,44.31
2018-05-23T01:10:01.879Z,44.29
2018-05-23T01:11:10.780Z,44.21
2018-05-23T01:12:20.469Z,44.31
2018-05-23T01:13:30.168Z,44.19
2018-05-23T01:14:39.063Z,44.09
2018-05-23T01:15:48.229Z,44.29
2018-05-23T01:16:57.939Z,44.31
2018-05-23T01:18:07.120Z,44.21
2018-05-23T01:19:16.310Z,44.31
2018-05-23T01:20:25.744Z,44.19
2018-05-23T01:21:34.911Z,44.02
2018-05-23T01:22:44.335Z,44.4
2018-05-23T01:23:53.497Z,44.19
2018-05-23T01:25:02.681Z,44.21
2018-05-23T01:26:11.825Z,44.09
2018-05-23T01:27:20.999Z,44.21
2018-05-23T01:28:30.226Z,44.4
2018-05-23T01:29:39.939Z,44.21
2018-05-23T01:30:49.370Z,43.92
2018-05-23T01:31:59.314Z,44.12
2018-05-23T01:33:08.473Z,44.09
2018-05-23T01:34:18.212Z,44.12
2018-05-23T01:35:27.385Z,44.09
2018-05-23T01:36:36.413Z,44.21
2018-05-23T01:37:45.852Z,44.4
2018-05-23T01:38:55.546Z,44.5
2018-05-23T01:40:04.709Z,44.4
2018-05-23T01:41:14.662Z,44.09
2018-05-23T01:42:24.093Z,44.09
2018-05-23T01:43:33.256Z,44.29
2018-05-23T01:44:42.754Z,44.09
2018-05-23T01:45:51.664Z,44.21
2018-05-23T01:47:01.333Z,44.09
2018-05-23T01:48:09.998Z,44.21
2018-05-23T01:49:19.427Z,44.19
2018-05-23T01:50:28.604Z,44.5
2018-05-23T01:51:38.035Z,44.31
2018-05-23T01:52:47.453Z,44.09
2018-05-23T01:53:56.911Z,44.09
2018-05-23T01:55:06.591Z,44.21
2018-05-23T01:56:15.763Z,44.31
2018-05-23T01:57:25.160Z,44.12
2018-05-23T01:58:34.646Z,44.21
2018-05-23T01:59:43.827Z,44.5
2018-05-23T02:00:53.025Z,44.12
2018-05-23T02:02:02.744Z,44.02
2018-05-23T02:03:12.515Z,44.02
2018-05-23T02:04:22.454Z,44.31
2018-05-23T02:05:31.632Z,44.31
2018-05-23T02:06:41.337Z,44.21
2018-05-23T02:07:50.526Z,44.29
2018-05-23T02:08:59.965Z,44.31
2018-05-23T02:10:09.389Z,44.21
2018-05-23T02:11:19.327Z,44.4
2018-05-23T02:12:28.739Z,44.38
2018-05-23T02:13:38.167Z,44.29
2018-05-23T02:14:47.095Z,44.4
2018-05-23T02:15:56.541Z,44.4
2018-05-23T02:17:05.483Z,44.31
2018-05-23T02:18:14.641Z,44.29
2018-05-23T02:19:24.346Z,44.4
2018-05-23T02:20:33.788Z,44.5
2018-05-23T02:21:42.949Z,44.4
2018-05-23T02:22:52.636Z,44.5
2018-05-23T02:24:02.062Z,44.5
2018-05-23T02:25:11.741Z,44.38
2018-05-23T02:26:20.930Z,44.29
2018-05-23T02:27:30.117Z,44.29
2018-05-23T02:28:39.288Z,44.4
2018-05-23T02:29:48.447Z,44.4
2018-05-23T02:30:57.344Z,44.5
2018-05-23T02:32:07.057Z,44.31
2018-05-23T02:33:16.753Z,44.5
2018-05-23T02:34:25.959Z,44.48
2018-05-23T02:35:35.384Z,44.21
2018-05-23T02:36:45.332Z,44.6
2018-05-23T02:37:55.015Z,44.21
2018-05-23T02:39:04.699Z,44.31
2018-05-23T02:40:13.904Z,44.29
2018-05-23T02:41:23.862Z,44.79
2018-05-23T02:42:33.572Z,44.21
2018-05-23T02:43:43.017Z,44.7
2018-05-23T02:44:52.193Z,44.96
2018-05-23T02:46:01.409Z,44.79
2018-05-23T02:47:10.957Z,44.89
2018-05-23T02:48:20.584Z,44.98
2018-05-23T02:49:30.029Z,44.96
2018-05-23T02:50:39.716Z,45.08
2018-05-23T02:51:49.407Z,45.08
2018-05-23T02:52:58.570Z,44.77
2018-05-23T02:54:08.258Z,44.79
2018-05-23T02:55:17.711Z,44.77
2018-05-23T02:56:27.423Z,44.87
2018-05-23T02:57:37.131Z,44.87
2018-05-23T02:58:46.855Z,44.77
2018-05-23T02:59:56.801Z,44.67
2018-05-23T03:01:05.997Z,44.77
2018-05-23T03:02:15.966Z,44.67
2018-05-23T03:03:25.476Z,44.79
2018-05-23T03:04:34.661Z,44.77
2018-05-23T03:05:44.425Z,44.57
2018-05-23T03:06:54.099Z,44.67
2018-05-23T03:08:03.550Z,44.67
2018-05-23T03:09:12.982Z,44.67
2018-05-23T03:10:22.652Z,44.7
2018-05-23T03:11:32.070Z,44.67
2018-05-23T03:12:41.782Z,44.67
2018-05-23T03:13:50.943Z,44.77
2018-05-23T03:15:00.133Z,44.77
2018-05-23T03:16:09.801Z,44.87
2018-05-23T03:17:18.697Z,44.77
2018-05-23T03:18:28.376Z,44.67
2018-05-23T03:19:37.525Z,44.77
2018-05-23T03:20:46.951Z,44.67
2018-05-23T03:21:56.378Z,44.77
2018-05-23T03:23:05.989Z,44.67
2018-05-23T03:24:14.893Z,44.77
2018-05-23T03:25:24.570Z,44.57
2018-05-23T03:26:33.731Z,44.67
2018-05-23T03:27:43.417Z,44.48
2018-05-23T03:28:52.568Z,44.67
2018-05-23T03:30:01.456Z,44.77
2018-05-23T03:31:10.367Z,44.7
2018-05-23T03:32:19.562Z,45.06
2018-05-23T03:33:28.994Z,44.87
2018-05-23T03:34:38.698Z,44.87
2018-05-23T03:35:48.363Z,44.87
2018-05-23T03:36:57.275Z,44.87
2018-05-23T03:38:06.441Z,44.89
2018-05-23T03:39:15.594Z,44.96
2018-05-23T03:40:24.801Z,44.87
2018-05-23T03:41:33.968Z,45.16
2018-05-23T03:42:43.389Z,45.16
2018-05-23T03:43:53.083Z,44.96
2018-05-23T03:45:01.735Z,45.06
2018-05-23T03:46:11.169Z,44.87
2018-05-23T03:47:20.871Z,45.16
2018-05-23T03:48:30.352Z,45.08
2018-05-23T03:49:39.777Z,44.87
2018-05-23T03:50:48.960Z,44.96
2018-05-23T03:51:58.148Z,45.16
2018-05-23T03:53:07.322Z,44.96
2018-05-23T03:54:16.492Z,45.16
2018-05-23T03:55:26.067Z,44.96
2018-05-23T03:56:35.507Z,44.96
2018-05-23T03:57:45.208Z,44.96
2018-05-23T03:58:54.616Z,45.06
2018-05-23T04:00:04.034Z,45.06
2018-05-23T04:01:13.980Z,45.06
2018-05-23T04:02:23.412Z,45.25
2018-05-23T04:03:32.837Z,45.06
2018-05-23T04:04:42.261Z,44.87
2018-05-23T04:05:52.053Z,45.06
2018-05-23T04:07:01.724Z,44.87
2018-05-23T04:08:10.906Z,44.87
2018-05-23T04:09:20.315Z,45.06
2018-05-23T04:10:30.086Z,45.06
2018-05-23T04:11:39.317Z,45.16
2018-05-23T04:12:48.229Z,44.96
2018-05-23T04:13:57.916Z,45.06
2018-05-23T04:15:07.336Z,45.16
2018-05-23T04:16:16.273Z,45.06
2018-05-23T04:17:25.435Z,44.77
2018-05-23T04:18:34.609Z,44.87
2018-05-23T04:19:44.548Z,45.06
2018-05-23T04:20:53.486Z,45.25
2018-05-23T04:22:03.167Z,45.16
2018-05-23T04:23:12.362Z,45.06
2018-05-23T04:24:21.530Z,45.35
2018-05-23T04:25:30.440Z,45.16
2018-05-23T04:26:39.351Z,45.16
2018-05-23T04:27:48.771Z,45.16
2018-05-23T04:28:58.474Z,45.16
2018-05-23T04:30:07.646Z,45.25
2018-05-23T04:31:16.837Z,45.35
2018-05-23T04:32:26.298Z,45.25
2018-05-23T04:33:35.987Z,45.16
2018-05-23T04:34:45.171Z,45.06
2018-05-23T04:35:54.697Z,45.35
2018-05-23T04:37:04.117Z,45.35
2018-05-23T04:38:13.618Z,45.35
2018-05-23T04:39:22.297Z,45.06
2018-05-23T04:40:31.962Z,45.06
2018-05-23T04:41:40.897Z,45.45
2018-05-23T04:42:50.326Z,45.54
2018-05-23T04:44:00.023Z,45.45
2018-05-23T04:45:09.234Z,45.25
2018-05-23T04:46:18.676Z,45.54
2018-05-23T04:47:28.200Z,45.54
2018-05-23T04:48:37.959Z,45.54
2018-05-23T04:49:48.126Z,45.45
2018-05-23T04:50:57.335Z,45.45
2018-05-23T04:52:06.529Z,45.64
2018-05-23T04:53:16.212Z,45.74
2018-05-23T04:54:25.639Z,45.74
2018-05-23T04:55:35.062Z,45.16
2018-05-23T04:56:44.259Z,45.74
2018-05-23T04:57:54.218Z,45.25
2018-05-23T04:59:03.659Z,45.25
2018-05-23T05:00:13.349Z,45.35
2018-05-23T05:01:22.790Z,45.25
2018-05-23T05:02:32.467Z,45.74
2018-05-23T05:03:41.922Z,45.54
2018-05-23T05:04:51.620Z,45.93
2018-05-23T05:06:00.808Z,45.64
2018-05-23T05:07:10.274Z,45.35
2018-05-23T05:08:19.734Z,45.35
2018-05-23T05:09:28.841Z,45.45
2018-05-23T05:10:37.804Z,45.45
2018-05-23T05:11:46.971Z,45.35
2018-05-23T05:12:56.657Z,45.54
2018-05-23T05:14:06.361Z,45.35
2018-05-23T05:15:16.337Z,45.45
2018-05-23T05:16:25.247Z,45.54
2018-05-23T05:17:34.665Z,45.35
2018-05-23T05:18:44.353Z,45.35
2018-05-23T05:19:54.400Z,45.54
2018-05-23T05:21:03.875Z,45.35
2018-05-23T05:22:13.307Z,45.54
2018-05-23T05:23:22.505Z,45.54
2018-05-23T05:24:31.969Z,45.54
2018-05-23T05:25:40.950Z,45.45
2018-05-23T05:26:50.392Z,45.16
2018-05-23T05:28:00.076Z,45.25
2018-05-23T05:29:09.249Z,45.35
2018-05-23T05:30:18.466Z,45.45
2018-05-23T05:31:28.155Z,45.35
2018-05-23T05:32:37.574Z,45.45
2018-05-23T05:33:46.486Z,45.54
2018-05-23T05:34:55.679Z,45.35
2018-05-23T05:36:04.882Z,45.54
2018-05-23T05:37:13.794Z,45.74
2018-05-23T05:38:22.964Z,45.16
2018-05-23T05:39:32.406Z,45.74
2018-05-23T05:40:41.849Z,45.64
2018-05-23T05:41:51.001Z,45.25
2018-05-23T05:43:00.433Z,45.25
2018-05-23T05:44:09.602Z,45.25
2018-05-23T05:45:19.034Z,45.54
2018-05-23T05:46:28.497Z,45.54
2018-05-23T05:47:37.683Z,45.25
2018-05-23T05:48:47.125Z,45.54
2018-05-23T05:49:56.051Z,45.45
2018-05-23T05:51:05.492Z,46.03
2018-05-23T05:52:14.665Z,46.03
2018-05-23T05:53:24.384Z,45.64
2018-05-23T05:54:33.839Z,45.64
2018-05-23T05:55:43.780Z,45.64
2018-05-23T05:56:53.484Z,45.64
2018-05-23T05:58:03.164Z,46.03
2018-05-23T05:59:12.189Z,45.54
2018-05-23T06:00:21.868Z,45.54
2018-05-23T06:01:31.598Z,45.54
2018-05-23T06:02:41.319Z,45.64
2018-05-23T06:03:50.752Z,46.12
2018-05-23T06:05:00.174Z,45.83
2018-05-23T06:06:08.833Z,45.93
2018-05-23T06:07:18.515Z,45.74
2018-05-23T06:08:28.235Z,45.93
2018-05-23T06:09:37.171Z,45.93
2018-05-23T06:10:47.057Z,45.93
2018-05-23T06:11:56.486Z,45.83
2018-05-23T06:13:05.179Z,45.93
2018-05-23T06:14:14.646Z,45.93
2018-05-23T06:15:23.844Z,45.83
2018-05-23T06:16:33.555Z,45.83
2018-05-23T06:17:43.002Z,45.93
2018-05-23T06:18:52.733Z,45.83
2018-05-23T06:20:01.664Z,45.93
2018-05-23T06:21:10.837Z,45.93
2018-05-23T06:22:20.521Z,45.93
2018-05-23T06:23:30.284Z,45.93
2018-05-23T06:24:39.471Z,45.83
2018-05-23T06:25:48.926Z,45.74
2018-05-23T06:26:58.101Z,45.93
2018-05-23T06:28:08.064Z,45.93
2018-05-23T06:29:16.974Z,45.74
2018-05-23T06:30:26.730Z,45.64
2018-05-23T06:31:36.786Z,45.54
2018-05-23T06:32:46.246Z,45.83
2018-05-23T06:33:55.922Z,45.74
2018-05-23T06:35:05.342Z,45.83
2018-05-23T06:36:14.771Z,45.64
2018-05-23T06:37:24.547Z,45.64
2018-05-23T06:38:34.255Z,45.74
2018-05-23T06:39:43.980Z,45.64
2018-05-23T06:40:53.695Z,45.64
2018-05-23T06:42:03.171Z,45.64
2018-05-23T06:43:12.386Z,45.83
2018-05-23T06:44:21.820Z,46.03
2018-05-23T06:45:31.003Z,46.22
2018-05-23T06:46:40.726Z,46.12
2018-05-23T06:47:50.405Z,46.12
2018-05-23T06:48:59.593Z,46.12
2018-05-23T06:50:09.093Z,46.22
2018-05-23T06:51:18.600Z,46.12
2018-05-23T06:52:28.023Z,46.12
2018-05-23T06:53:36.687Z,45.74
2018-05-23T06:54:46.122Z,45.93
2018-05-23T06:55:55.052Z,45.83
2018-05-23T06:57:04.496Z,45.64
2018-05-23T06:58:13.693Z,45.93
2018-05-23T06:59:22.875Z,45.74
2018-05-23T07:00:32.038Z,46.03
2018-05-23T07:01:41.473Z,46.03
2018-05-23T07:02:50.406Z,45.83
2018-05-23T07:03:59.854Z,46.12
2018-05-23T07:05:09.581Z,46.22
2018-05-23T07:06:18.509Z,46.12
2018-05-23T07:07:27.667Z,46.22
2018-05-23T07:08:37.340Z,46.03
2018-05-23T07:09:46.522Z,46.12
2018-05-23T07:10:55.716Z,46.12
2018-05-23T07:12:05.229Z,46.12
2018-05-23T07:13:14.134Z,46.12
2018-05-23T07:14:23.081Z,46.12
2018-05-23T07:15:32.264Z,46.12
2018-05-23T07:16:41.178Z,46.22
2018-05-23T07:17:50.481Z,46.03
2018-05-23T07:19:00.831Z,46.22
2018-05-23T07:20:10.018Z,46.32
2018-05-23T07:21:19.691Z,46.22
2018-05-23T07:22:29.392Z,46.22
2018-05-23T07:23:39.145Z,46.12
2018-05-23T07:24:48.318Z,46.22
2018-05-23T07:25:57.320Z,46.22
2018-05-23T07:27:06.155Z,46.03
2018-05-23T07:28:15.832Z,46.22
2018-05-23T07:29:25.278Z,46.03
2018-05-23T07:30:34.576Z,46.12
2018-05-23T07:31:44.774Z,46.22
2018-05-23T07:32:54.445Z,46.03
2018-05-23T07:34:03.405Z,46.03
2018-05-23T07:35:12.604Z,46.12
2018-05-23T07:36:22.070Z,46.03
2018-05-23T07:37:31.272Z,46.25
2018-05-23T07:38:40.480Z,46.12
2018-05-23T07:39:49.774Z,46.03
2018-05-23T07:40:58.727Z,46.03
2018-05-23T07:42:08.441Z,46.03
2018-05-23T07:43:17.961Z,46.03
2018-05-23T07:44:27.128Z,46.05
2018-05-23T07:45:36.651Z,46.03
2018-05-23T07:46:46.637Z,46.03
2018-05-23T07:47:55.830Z,46.34
2018-05-23T07:49:05.554Z,46.03
2018-05-23T07:50:15.007Z,46.05
2018-05-23T07:51:24.439Z,46.15
2018-05-23T07:52:33.629Z,46.32
2018-05-23T07:53:43.121Z,46.03
2018-05-23T07:54:52.088Z,46.05
2018-05-23T07:56:01.583Z,46.15
2018-05-23T07:57:10.537Z,46.05
2018-05-23T07:58:20.291Z,46.03
2018-05-23T07:59:29.487Z,46.05
2018-05-23T08:00:38.462Z,46.32
2018-05-23T08:01:47.415Z,46.15
2018-05-23T08:02:56.872Z,46.25
2018-05-23T08:04:05.797Z,46.05
2018-05-23T08:05:15.316Z,46.22
2018-05-23T08:06:24.770Z,46.15
2018-05-23T08:07:33.938Z,46.25
2018-05-23T08:08:42.611Z,46.03
2018-05-23T08:09:52.309Z,46.05
2018-05-23T08:11:01.503Z,46.05
2018-05-23T08:12:11.035Z,46.03
2018-05-23T08:13:20.232Z,46.03
2018-05-23T08:14:29.920Z,46.32
2018-05-23T08:15:38.588Z,46.34
2018-05-23T08:16:48.035Z,46.05
2018-05-23T08:17:57.463Z,46.32
2018-05-23T08:19:06.923Z,46.03
2018-05-23T08:20:16.429Z,46.03
2018-05-23T08:21:26.147Z,46.25
2018-05-23T08:22:35.582Z,46.05
2018-05-23T08:23:44.492Z,46.32
2018-05-23T08:24:53.921Z,46.32
2018-05-23T08:26:03.891Z,46.03
2018-05-23T08:27:13.086Z,46.32
2018-05-23T08:28:22.764Z,46.25
2018-05-23T08:29:32.207Z,46.44
2018-05-23T08:30:41.672Z,46.05
2018-05-23T08:31:51.107Z,46.12
2018-05-23T08:33:00.285Z,46.34
2018-05-23T08:34:09.736Z,46.25
2018-05-23T08:35:18.907Z,46.05
2018-05-23T08:36:28.782Z,46.12
2018-05-23T08:37:38.221Z,45.95
2018-05-23T08:38:47.397Z,46.12
2018-05-23T08:39:56.652Z,46.12
2018-05-23T08:41:06.357Z,46.22
2018-05-23T08:42:15.264Z,45.83
2018-05-23T08:43:24.685Z,46.05
2018-05-23T08:44:34.132Z,45.95
2018-05-23T08:45:43.834Z,46.12
2018-05-23T08:46:53.531Z,46.12
2018-05-23T08:48:02.436Z,46.15
2018-05-23T08:49:11.599Z,45.86
2018-05-23T08:50:21.026Z,45.95
2018-05-23T08:51:30.457Z,45.83
2018-05-23T08:52:40.499Z,45.93
2018-05-23T08:53:49.701Z,46.05
2018-05-23T08:54:58.885Z,46.15
2018-05-23T08:56:08.065Z,45.93
2018-05-23T08:57:17.523Z,46.12
2018-05-23T08:58:26.951Z,46.15
2018-05-23T08:59:36.140Z,46.15
2018-05-23T09:00:45.623Z,45.95
2018-05-23T09:01:55.038Z,46.15
2018-05-23T09:03:04.219Z,46.05
2018-05-23T09:04:13.659Z,45.86
2018-05-23T09:05:23.104Z,45.95
2018-05-23T09:06:32.541Z,45.76
2018-05-23T09:07:41.228Z,45.83
2018-05-23T09:08:50.914Z,45.86
2018-05-23T09:10:00.617Z,45.86
2018-05-23T09:11:10.558Z,45.74
2018-05-23T09:12:20.288Z,45.76
2018-05-23T09:13:29.992Z,46.05
2018-05-23T09:14:39.435Z,45.86
2018-05-23T09:15:48.401Z,45.86
2018-05-23T09:16:57.053Z,45.86
2018-05-23T09:18:06.476Z,45.95
2018-05-23T09:19:15.656Z,45.76
2018-05-23T09:20:25.103Z,45.76
2018-05-23T09:21:34.800Z,45.76
2018-05-23T09:22:43.984Z,45.93
2018-05-23T09:23:53.423Z,45.74
2018-05-23T09:25:02.611Z,45.83
2018-05-23T09:26:12.064Z,46.03
2018-05-23T09:27:21.826Z,45.76
2018-05-23T09:28:30.999Z,45.76
2018-05-23T09:29:39.920Z,45.76
2018-05-23T09:30:49.425Z,45.76
2018-05-23T09:31:58.875Z,45.76
2018-05-23T09:33:08.897Z,45.76
2018-05-23T09:34:17.811Z,45.66
2018-05-23T09:35:27.531Z,45.66
2018-05-23T09:36:36.462Z,46.05
2018-05-23T09:37:45.646Z,46.05
2018-05-23T09:38:54.850Z,45.95
2018-05-23T09:40:04.531Z,45.76
2018-05-23T09:41:13.728Z,45.95
2018-05-23T09:42:22.929Z,45.93
2018-05-23T09:43:31.875Z,45.86
2018-05-23T09:44:41.322Z,45.95
2018-05-23T09:45:50.518Z,45.95
2018-05-23T09:46:59.718Z,46.25
2018-05-23T09:48:08.898Z,45.86
2018-05-23T09:49:18.102Z,45.86
2018-05-23T09:50:27.530Z,45.76
2018-05-23T09:51:36.973Z,46.05
2018-05-23T09:52:46.457Z,46.15
2018-05-23T09:53:55.910Z,46.05
2018-05-23T09:55:05.447Z,45.95
2018-05-23T09:56:15.186Z,46.25
2018-05-23T09:57:25.122Z,46.05
2018-05-23T09:58:34.845Z,46.15
2018-05-23T09:59:44.290Z,46.05
2018-05-23T10:00:53.997Z,46.25
2018-05-23T10:02:03.188Z,46.25
2018-05-23T10:03:12.386Z,46.25
2018-05-23T10:04:21.899Z,45.95
2018-05-23T10:05:31.557Z,46.15
2018-05-23T10:06:40.719Z,46.25
2018-05-23T10:07:49.928Z,46.15
2018-05-23T10:08:59.164Z,46.25
2018-05-23T10:10:07.782Z,46.15
2018-05-23T10:11:17.253Z,46.25
2018-05-23T10:12:26.178Z,46.25
2018-05-23T10:13:36.152Z,46.25
2018-05-23T10:14:45.590Z,46.25
2018-05-23T10:15:54.785Z,46.15
2018-05-23T10:17:04.007Z,46.15
2018-05-23T10:18:13.689Z,46.25
2018-05-23T10:19:22.360Z,46.15
2018-05-23T10:20:32.572Z,46.15
2018-05-23T10:21:42.186Z,46.25
2018-05-23T10:22:51.385Z,46.25
2018-05-23T10:24:01.103Z,46.25
2018-05-23T10:25:10.572Z,46.05
2018-05-23T10:26:20.130Z,46.15
2018-05-23T10:27:30.418Z,46.15
2018-05-23T10:28:40.157Z,46.15
2018-05-23T10:29:50.143Z,46.25
2018-05-23T10:30:59.930Z,46.05
2018-05-23T10:32:09.113Z,46.15
2018-05-23T10:33:18.364Z,46.15
2018-05-23T10:34:27.909Z,46.15
2018-05-23T10:35:37.105Z,46.25
2018-05-23T10:36:47.089Z,46.25
2018-05-23T10:37:56.828Z,46.05
2018-05-23T10:39:06.660Z,46.15
2018-05-23T10:40:16.638Z,46.15
2018-05-23T10:41:26.620Z,46.25
2018-05-23T10:42:35.786Z,45.95
2018-05-23T10:43:45.520Z,45.95
2018-05-23T10:44:54.755Z,46.05
2018-05-23T10:46:03.881Z,46.05
2018-05-23T10:47:13.362Z,46.05
2018-05-23T10:48:22.812Z,46.05
2018-05-23T10:49:32.244Z,46.05
2018-05-23T10:50:41.686Z,46.15
2018-05-23T10:51:51.374Z,45.95
2018-05-23T10:53:00.931Z,46.15
2018-05-23T10:54:10.402Z,46.15
2018-05-23T10:55:19.852Z,45.95
2018-05-23T10:56:29.310Z,46.34
2018-05-23T10:57:39.070Z,46.05
2018-05-23T10:58:48.011Z,46.25
2018-05-23T10:59:57.454Z,46.25
2018-05-23T11:01:06.907Z,45.66
2018-05-23T11:02:16.341Z,46.25
2018-05-23T11:03:26.240Z,46.25
2018-05-23T11:04:35.168Z,45.86
2018-05-23T11:05:45.109Z,45.86
2018-05-23T11:06:55.138Z,45.66
2018-05-23T11:08:04.102Z,46.25
2018-05-23T11:09:13.782Z,46.25
2018-05-23T11:10:22.727Z,45.95
2018-05-23T11:11:32.433Z,45.66
2018-05-23T11:12:41.930Z,46.05
2018-05-23T11:13:51.411Z,45.86
2018-05-23T11:15:00.714Z,45.95
2018-05-23T11:16:10.596Z,45.86
2018-05-23T11:17:19.805Z,45.66
2018-05-23T11:18:29.313Z,45.66
2018-05-23T11:19:38.792Z,45.64
2018-05-23T11:20:48.599Z,45.66
2018-05-23T11:21:57.896Z,45.66
2018-05-23T11:23:07.149Z,45.57
2018-05-23T11:24:16.920Z,45.57
2018-05-23T11:25:26.416Z,45.86
2018-05-23T11:26:36.203Z,45.66
2018-05-23T11:27:45.159Z,45.86
2018-05-23T11:28:54.437Z,45.86
2018-05-23T11:30:03.663Z,45.47
2018-05-23T11:31:12.851Z,45.66
2018-05-23T11:32:22.332Z,45.76
2018-05-23T11:33:31.548Z,45.76
2018-05-23T11:34:41.043Z,45.76
2018-05-23T11:35:50.796Z,45.76
2018-05-23T11:37:00.298Z,45.76
2018-05-23T11:38:10.359Z,45.66
2018-05-23T11:39:19.595Z,45.66
2018-05-23T11:40:29.072Z,45.76
2018-05-23T11:41:38.290Z,45.76
2018-05-23T11:42:47.527Z,45.76
2018-05-23T11:43:57.067Z,45.57
2018-05-23T11:45:06.888Z,45.57
2018-05-23T11:46:16.624Z,45.76
2018-05-23T11:47:26.701Z,45.76
2018-05-23T11:48:35.946Z,45.76
2018-05-23T11:49:45.197Z,45.86
2018-05-23T11:50:54.949Z,45.76
2018-05-23T11:52:04.173Z,45.86
2018-05-23T11:53:13.817Z,45.76
2018-05-23T11:54:23.005Z,45.57
2018-05-23T11:55:31.946Z,45.76
2018-05-23T11:56:40.887Z,45.76
2018-05-23T11:57:50.599Z,45.57
2018-05-23T11:59:00.341Z,45.76
2018-05-23T12:00:09.860Z,45.47
2018-05-23T12:01:18.839Z,45.57
2018-05-23T12:02:28.342Z,45.66
2018-05-23T12:03:37.861Z,45.47
2018-05-23T12:04:47.099Z,45.66
2018-05-23T12:05:56.824Z,45.66
2018-05-23T12:07:06.027Z,45.66
2018-05-23T12:08:15.470Z,45.76
2018-05-23T12:09:24.929Z,45.66
2018-05-23T12:10:33.985Z,45.66
2018-05-23T12:11:43.935Z,45.66
2018-05-23T12:12:52.920Z,45.76
2018-05-23T12:14:02.125Z,45.57
2018-05-23T12:15:11.275Z,45.95
2018-05-23T12:16:20.713Z,45.57
2018-05-23T12:17:30.191Z,45.57
2018-05-23T12:18:39.400Z,45.95
2018-05-23T12:19:48.582Z,45.86
2018-05-23T12:20:58.268Z,45.95
2018-05-23T12:22:07.769Z,45.95
2018-05-23T12:23:16.940Z,45.86
2018-05-23T12:24:26.440Z,45.86
2018-05-23T12:25:36.437Z,45.86
2018-05-23T12:26:45.143Z,45.86
2018-05-23T12:27:54.591Z,45.95
2018-05-23T12:29:04.104Z,45.86
2018-05-23T12:30:13.285Z,46.05
2018-05-23T12:31:22.474Z,45.86
2018-05-23T12:32:31.667Z,45.95
2018-05-23T12:33:41.358Z,46.05
2018-05-23T12:34:51.061Z,45.95
2018-05-23T12:36:00.760Z,45.95
2018-05-23T12:37:09.496Z,45.95
2018-05-23T12:38:18.428Z,45.86
2018-05-23T12:39:28.156Z,45.95
2018-05-23T12:40:37.609Z,46.05
2018-05-23T12:41:47.044Z,45.95
2018-05-23T12:42:56.771Z,45.95
2018-05-23T12:44:06.209Z,45.95
2018-05-23T12:45:15.655Z,45.86
2018-05-23T12:46:25.123Z,45.86
2018-05-23T12:47:34.061Z,45.95
2018-05-23T12:48:43.794Z,45.95
2018-05-23T12:49:53.011Z,46.15
2018-05-23T12:51:02.726Z,45.86
2018-05-23T12:52:11.981Z,45.76
2018-05-23T12:53:21.466Z,45.86
2018-05-23T12:54:31.444Z,46.05
2018-05-23T12:55:41.487Z,45.95
2018-05-23T12:56:50.718Z,46.05
2018-05-23T12:57:59.962Z,46.15
2018-05-23T12:59:09.415Z,45.66
2018-05-23T13:00:18.382Z,45.66
2018-05-23T13:01:27.599Z,46.25
2018-05-23T13:02:36.543Z,45.66
2018-05-23T13:03:45.805Z,45.57
2018-05-23T13:04:55.837Z,45.66
2018-05-23T13:06:05.659Z,45.57
2018-05-23T13:07:15.213Z,45.47
2018-05-23T13:08:24.401Z,45.66
2018-05-23T13:09:34.438Z,45.66
2018-05-23T13:10:43.919Z,45.66
2018-05-23T13:11:53.407Z,45.66
2018-05-23T13:13:02.648Z,45.66
2018-05-23T13:14:12.119Z,45.28
2018-05-23T13:15:21.558Z,45.66
2018-05-23T13:16:31.289Z,45.66
2018-05-23T13:17:40.997Z,45.66
2018-05-23T13:18:50.754Z,45.47
2018-05-23T13:20:00.204Z,45.66
2018-05-23T13:21:09.711Z,45.66
2018-05-23T13:22:19.463Z,45.66
2018-05-23T13:23:28.646Z,45.57
2018-05-23T13:24:38.078Z,45.66
2018-05-23T13:25:47.082Z,45.28
2018-05-23T13:26:56.922Z,45.28
2018-05-23T13:28:06.140Z,45.47
2018-05-23T13:29:15.876Z,45.66
2018-05-23T13:30:25.470Z,45.28
2018-05-23T13:31:34.440Z,45.57
2018-05-23T13:32:43.906Z,45.66
2018-05-23T13:33:53.431Z,46.15
2018-05-23T13:35:03.223Z,45.28
2018-05-23T13:36:12.540Z,45.37
2018-05-23T13:37:22.006Z,45.47
2018-05-23T13:38:31.212Z,45.57
2018-05-23T13:39:40.638Z,45.47
2018-05-23T13:40:50.074Z,45.28
2018-05-23T13:41:59.557Z,45.95
2018-05-23T13:43:08.787Z,45.28
2018-05-23T13:44:18.256Z,45.47
2018-05-23T13:45:27.769Z,45.66
2018-05-23T13:46:36.820Z,45.28
2018-05-23T13:47:46.336Z,45.18
2018-05-23T13:48:55.583Z,45.57
2018-05-23T13:50:05.059Z,45.37
2018-05-23T13:51:13.994Z,45.28
2018-05-23T13:52:22.913Z,45.28
2018-05-23T13:53:32.093Z,45.37
2018-05-23T13:54:41.541Z,45.18
2018-05-23T13:55:50.979Z,45.28
2018-05-23T13:57:00.136Z,45.28
2018-05-23T13:58:09.316Z,45.37
2018-05-23T13:59:18.564Z,45.18
2018-05-23T14:00:27.744Z,45.28
2018-05-23T14:01:37.184Z,45.57
2018-05-23T14:02:46.948Z,45.57
2018-05-23T14:03:56.641Z,45.47
2018-05-23T14:05:06.623Z,45.57
2018-05-23T14:06:15.828Z,45.57
2018-05-23T14:07:25.565Z,45.57
2018-05-23T14:08:35.011Z,45.57
2018-05-23T14:09:44.333Z,45.57
2018-05-23T14:10:53.511Z,45.37
2018-05-23T14:12:02.626Z,45.57
2018-05-23T14:13:11.809Z,45.47
2018-05-23T14:14:20.730Z,45.37
2018-05-23T14:15:29.967Z,45.37
2018-05-23T14:16:39.132Z,45.37
2018-05-23T14:17:48.320Z,45.37
2018-05-23T14:18:57.250Z,45.37
2018-05-23T14:20:07.088Z,45.28
2018-05-23T14:21:16.273Z,45.37
2018-05-23T14:22:25.697Z,45.28
2018-05-23T14:23:34.891Z,45.76
2018-05-23T14:24:44.597Z,45.76
2018-05-23T14:25:54.335Z,45.76
2018-05-23T14:27:03.874Z,45.37
2018-05-23T14:28:13.150Z,45.47
2018-05-23T14:29:22.387Z,45.47
2018-05-23T14:30:31.869Z,45.76
2018-05-23T14:31:41.119Z,45.76
2018-05-23T14:32:50.350Z,45.66
2018-05-23T14:33:59.834Z,45.47
2018-05-23T14:35:09.300Z,45.76
2018-05-23T14:36:18.519Z,45.47
2018-05-23T14:37:28.571Z,45.37
2018-05-23T14:38:38.069Z,45.47
2018-05-23T14:39:47.316Z,45.47
2018-05-23T14:40:56.556Z,45.18
2018-05-23T14:42:05.810Z,45.28
2018-05-23T14:43:14.780Z,45.47
2018-05-23T14:44:24.024Z,45.28
2018-05-23T14:45:32.966Z,45.47
2018-05-23T14:46:42.402Z,45.37
2018-05-23T14:47:51.341Z,45.18
2018-05-23T14:49:00.590Z,45.28
2018-05-23T14:50:10.306Z,45.28
2018-05-23T14:51:20.145Z,45.37
2018-05-23T14:52:29.395Z,45.18
2018-05-23T14:53:38.895Z,45.28
2018-05-23T14:54:48.379Z,45.18